createdAt,value
2022-08-03T00:00:58.877Z,19.30
2022-08-03T00:06:05.136Z,19.40
2022-08-03T00:11:08.484Z,19.30
2022-08-03T00:16:11.857Z,19.50
2022-08-03T00:21:17.536Z,19.40
2022-08-03T00:26:20.803Z,19.20
2022-08-03T00:31:39.706Z,19.20
2022-08-03T00:36:50.281Z,19.00
2022-08-03T00:41:53.408Z,19.10
2022-08-03T00:46:56.659Z,19.10
2022-08-03T00:52:01.497Z,19.00
2022-08-03T00:57:12.916Z,19.10
2022-08-03T01:02:16.470Z,19.00
2022-08-03T01:07:29.410Z,18.90
2022-08-03T01:12:37.387Z,19.00
2022-08-03T01:17:45.043Z,18.80
2022-08-03T01:23:16.304Z,18.80
2022-08-03T01:28:30.246Z,18.50
2022-08-03T01:33:37.228Z,18.50
2022-08-03T01:38:44.008Z,18.30
2022-08-03T01:44:28.687Z,18.50
2022-08-03T01:49:15.968Z,18.50
2022-08-03T01:54:19.525Z,18.00
2022-08-03T01:59:22.786Z,17.90
2022-08-03T02:04:34.073Z,18.10
2022-08-03T02:09:38.354Z,18.00
2022-08-03T02:14:42.423Z,17.90
2022-08-03T02:19:46.902Z,17.70
2022-08-03T02:24:51.008Z,17.50
2022-08-03T02:29:56.077Z,17.30
2022-08-03T02:35:01.177Z,17.40
2022-08-03T02:40:05.887Z,17.50
2022-08-03T02:45:12.537Z,17.60
2022-08-03T02:50:20.314Z,17.50
2022-08-03T02:55:24.121Z,17.40
2022-08-03T03:00:31.936Z,17.20
2022-08-03T03:05:54.985Z,17.10
2022-08-03T03:11:01.091Z,17.10
2022-08-03T03:16:05.212Z,17.00
2022-08-03T03:21:10.484Z,16.90
2022-08-03T03:26:14.617Z,16.70
2022-08-03T03:31:17.987Z,16.60
2022-08-03T03:36:22.680Z,16.60
2022-08-03T03:41:26.113Z,16.50
2022-08-03T03:46:30.079Z,16.50
2022-08-03T03:51:35.285Z,16.30
2022-08-03T03:56:38.619Z,16.30
2022-08-03T04:01:42.373Z,16.40
2022-08-03T04:07:04.315Z,16.40
2022-08-03T04:12:07.617Z,16.40
2022-08-03T04:17:11.457Z,16.50
2022-08-03T04:22:18.598Z,16.50
2022-08-03T04:27:23.289Z,16.40
2022-08-03T04:32:28.706Z,16.30
2022-08-03T04:37:36.859Z,16.30
2022-08-03T04:42:40.271Z,16.20
2022-08-03T04:47:45.202Z,16.20
2022-08-03T04:52:50.126Z,16.30
2022-08-03T04:57:53.729Z,16.50
2022-08-03T05:02:56.902Z,16.60
2022-08-03T05:08:02.072Z,16.50
2022-08-03T05:13:06.604Z,16.50
2022-08-03T05:18:14.004Z,16.70
2022-08-03T05:23:18.682Z,16.90
2022-08-03T05:28:21.782Z,16.90
2022-08-03T05:33:25.178Z,17.00
2022-08-03T05:38:34.603Z,17.20
2022-08-03T05:43:38.784Z,17.50
2022-08-03T05:48:42.216Z,17.80
2022-08-03T05:53:46.817Z,18.00
2022-08-03T05:58:49.953Z,18.20
2022-08-03T06:03:53.680Z,18.40
2022-08-03T06:08:58.726Z,18.60
2022-08-03T06:14:01.958Z,18.80
2022-08-03T06:19:05.229Z,19.20
2022-08-03T06:24:10.217Z,19.70
2022-08-03T06:29:15.229Z,19.90
2022-08-03T06:34:34.182Z,20.30
2022-08-03T06:39:39.917Z,20.80
2022-08-03T06:44:43.109Z,21.30
2022-08-03T06:50:12.392Z,21.70
2022-08-03T06:55:11.534Z,22.10
2022-08-03T07:00:15.529Z,22.80
2022-08-03T07:05:21.640Z,23.50
2022-08-03T07:10:26.314Z,24.00
2022-08-03T07:15:54.655Z,24.10
2022-08-03T07:20:56.985Z,24.60
2022-08-03T07:26:03.300Z,25.00
2022-08-03T07:31:06.470Z,25.40
2022-08-03T07:36:09.656Z,26.30
2022-08-03T07:41:14.438Z,26.50
2022-08-03T07:46:17.731Z,27.00
2022-08-03T07:51:21.476Z,28.00
2022-08-03T07:56:25.955Z,27.80
2022-08-03T08:01:30.353Z,28.50
2022-08-03T08:06:34.465Z,28.50
2022-08-03T08:11:40.108Z,30.10
2022-08-03T08:16:43.727Z,29.40
2022-08-03T08:21:53.174Z,29.50
2022-08-03T08:27:08.751Z,30.30
2022-08-03T08:32:13.227Z,30.40
2022-08-03T08:37:16.949Z,30.40
2022-08-03T08:42:22.299Z,30.90
2022-08-03T08:47:28.574Z,31.80
2022-08-03T08:52:32.396Z,32.70
2022-08-03T08:57:43.114Z,31.80
2022-08-03T09:02:47.610Z,32.40
2022-08-03T09:08:16.119Z,32.60
2022-08-03T09:13:21.139Z,32.80
2022-08-03T09:18:33.469Z,32.80
2022-08-03T09:24:01.380Z,33.10
2022-08-03T09:29:14.007Z,34.20
2022-08-03T09:34:22.157Z,34.20
2022-08-03T09:39:41.099Z,34.90
2022-08-03T09:44:47.013Z,33.60
2022-08-03T09:49:58.740Z,33.60
2022-08-03T09:55:03.076Z,33.60
2022-08-03T10:00:13.423Z,33.50
2022-08-03T10:05:19.539Z,33.60
2022-08-03T10:10:30.065Z,34.10
2022-08-03T10:16:23.005Z,34.70
2022-08-03T10:21:03.235Z,34.80
2022-08-03T10:26:07.395Z,35.30
2022-08-03T10:31:12.422Z,34.90
2022-08-03T10:36:16.885Z,34.60
2022-08-03T10:41:21.041Z,34.80
2022-08-03T10:46:25.846Z,35.20
2022-08-03T10:51:33.242Z,35.70
2022-08-03T10:56:58.798Z,35.70
2022-08-03T11:02:18.574Z,36.50
2022-08-03T11:07:23.459Z,36.00
2022-08-03T11:12:30.609Z,35.40
2022-08-03T11:17:46.337Z,35.70
2022-08-03T11:23:01.125Z,36.10
2022-08-03T11:28:29.306Z,35.80
2022-08-03T11:33:43.985Z,36.00
2022-08-03T11:44:51.052Z,37.70
2022-08-03T11:49:59.364Z,37.50
2022-08-03T11:55:13.766Z,37.20
2022-08-03T12:00:27.903Z,37.00
2022-08-03T12:05:40.701Z,36.50
2022-08-03T12:10:49.453Z,36.60
2022-08-03T12:15:54.123Z,37.60
2022-08-03T12:21:06.531Z,37.20
2022-08-03T12:26:10.568Z,37.00
2022-08-03T12:31:14.265Z,37.70
2022-08-03T12:36:19.038Z,37.80
2022-08-03T12:41:29.970Z,37.50
2022-08-03T12:46:37.643Z,37.30
2022-08-03T12:51:58.045Z,37.50
2022-08-03T12:57:02.390Z,37.60
2022-08-03T13:02:09.303Z,37.80
2022-08-03T13:07:15.465Z,37.80
2022-08-03T13:12:18.870Z,37.80
2022-08-03T13:17:24.517Z,39.60
2022-08-03T13:22:33.176Z,39.00
2022-08-03T13:28:03.829Z,39.90
2022-08-03T13:33:00.787Z,40.10
2022-08-03T13:38:07.968Z,39.40
2022-08-03T13:43:11.184Z,39.50
2022-08-03T13:48:36.124Z,40.10
2022-08-03T13:53:41.952Z,38.50
2022-08-03T13:58:45.558Z,38.50
2022-08-03T14:03:52.577Z,38.70
2022-08-03T14:09:00.584Z,39.40
2022-08-03T14:14:04.361Z,39.80
2022-08-03T14:19:09.124Z,39.20
2022-08-03T14:24:14.182Z,39.10
2022-08-03T14:29:17.374Z,39.10
2022-08-03T14:34:22.439Z,39.10
2022-08-03T14:45:02.443Z,39.90
2022-08-03T14:50:34.540Z,39.70
2022-08-03T14:55:38.657Z,40.20
2022-08-03T15:00:45.434Z,40.50
2022-08-03T15:05:48.696Z,41.00
2022-08-03T15:10:53.699Z,40.90
2022-08-03T15:16:06.321Z,39.80
2022-08-03T15:21:16.672Z,39.60
2022-08-03T15:26:41.394Z,38.70
2022-08-03T15:31:45.629Z,39.40
2022-08-03T15:36:48.911Z,39.40
2022-08-03T15:41:54.741Z,40.30
2022-08-03T15:46:59.700Z,39.00
2022-08-03T15:52:03.021Z,39.20
2022-08-03T15:57:07.732Z,39.30
2022-08-03T16:02:12.042Z,40.10
2022-08-03T16:07:36.951Z,40.50
2022-08-03T16:12:41.795Z,40.60
2022-08-03T16:17:46.876Z,39.50
2022-08-03T16:22:50.474Z,40.30
2022-08-03T16:28:07.136Z,39.80
2022-08-03T16:33:18.341Z,39.00
2022-08-03T16:38:22.126Z,39.10
2022-08-03T16:43:26.767Z,38.90
2022-08-03T16:48:29.951Z,39.40
2022-08-03T16:54:05.199Z,39.70
2022-08-03T16:58:57.905Z,39.70
2022-08-03T17:04:04.733Z,39.30
2022-08-03T17:09:38.678Z,38.90
2022-08-03T17:14:47.393Z,39.20
2022-08-03T17:19:55.275Z,39.60
2022-08-03T17:24:59.139Z,39.60
2022-08-03T17:30:07.772Z,39.10
2022-08-03T17:35:11.490Z,38.50
2022-08-03T17:40:17.507Z,38.40
2022-08-03T17:45:22.891Z,38.10
2022-08-03T17:50:28.890Z,37.60
2022-08-03T17:55:55.831Z,37.50
2022-08-03T18:02:00.245Z,36.90
2022-08-03T18:06:37.171Z,35.50
2022-08-03T18:11:40.303Z,34.10
2022-08-03T18:16:50.922Z,34.00
2022-08-03T18:22:03.590Z,33.80
2022-08-03T18:27:08.028Z,33.00
2022-08-03T18:32:17.004Z,32.70
2022-08-03T18:37:24.985Z,32.30
2022-08-03T18:42:28.820Z,32.00
2022-08-03T18:47:56.994Z,31.70
2022-08-03T18:53:15.677Z,26.50
2022-08-03T18:58:23.808Z,23.20
2022-08-03T19:03:41.582Z,20.90
2022-08-03T19:08:48.758Z,19.80
2022-08-03T19:13:52.320Z,19.20
2022-08-03T19:18:57.058Z,19.10
2022-08-03T19:24:01.755Z,19.40
2022-08-03T19:29:07.712Z,19.50
2022-08-03T19:34:20.504Z,18.90
2022-08-03T19:39:27.679Z,19.30
2022-08-03T19:44:32.257Z,19.00
2022-08-03T19:50:00.004Z,19.00
2022-08-03T19:55:06.015Z,18.80
2022-08-03T20:00:12.436Z,18.60
2022-08-03T20:05:18.811Z,19.10
2022-08-03T20:10:24.815Z,19.30
2022-08-03T20:15:31.169Z,19.10
2022-08-03T20:20:38.199Z,19.40
2022-08-03T20:25:48.653Z,19.20
2022-08-03T20:31:00.313Z,19.30
2022-08-03T20:36:18.104Z,19.50
2022-08-03T20:41:22.038Z,19.50
2022-08-03T20:46:31.802Z,19.70
2022-08-03T20:51:49.744Z,20.10
2022-08-03T20:56:56.660Z,20.50
2022-08-03T21:02:02.460Z,20.80
2022-08-03T21:07:16.744Z,21.10
2022-08-03T21:12:29.405Z,21.40
2022-08-03T21:17:41.994Z,21.50
2022-08-03T21:23:39.827Z,21.60
2022-08-03T21:28:39.358Z,22.30
2022-08-03T21:33:44.409Z,22.70
2022-08-03T21:38:56.477Z,23.00
2022-08-03T21:44:00.856Z,23.00
2022-08-03T21:50:05.846Z,23.40
2022-08-03T21:54:34.808Z,23.60
2022-08-03T21:59:39.001Z,23.90
2022-08-03T22:04:55.137Z,23.80
2022-08-03T22:10:01.753Z,23.80
2022-08-03T22:15:06.709Z,23.60
2022-08-03T22:20:15.129Z,23.50
2022-08-03T22:25:19.837Z,23.30
2022-08-03T22:30:23.845Z,23.20
2022-08-03T22:35:27.947Z,23.20
2022-08-03T22:40:32.554Z,23.10
2022-08-03T22:45:45.832Z,22.50
2022-08-03T22:51:04.162Z,22.30
2022-08-03T22:56:08.974Z,22.40
2022-08-03T23:01:16.138Z,22.60
2022-08-03T23:06:21.700Z,22.70
2022-08-03T23:11:27.499Z,22.50
2022-08-03T23:16:31.179Z,22.30
2022-08-03T23:21:53.872Z,22.10
2022-08-03T23:27:03.680Z,21.80
2022-08-03T23:32:09.432Z,21.70
2022-08-03T23:37:14.033Z,21.70
2022-08-03T23:42:20.394Z,21.80
2022-08-03T23:47:23.908Z,21.90
2022-08-03T23:52:57.077Z,21.80
2022-08-03T23:58:12.373Z,21.90
